createdAt,value
2017-07-17T00:02:23.086Z,64.00
2017-07-17T00:04:50.866Z,63.90
2017-07-17T00:07:18.627Z,63.90
2017-07-17T00:09:46.394Z,63.80
2017-07-17T00:12:14.159Z,63.70
2017-07-17T00:14:41.836Z,63.70
2017-07-17T00:17:09.500Z,63.60
2017-07-17T00:19:37.167Z,63.60
2017-07-17T00:22:04.905Z,63.70
2017-07-17T00:24:32.672Z,64.40
2017-07-17T00:27:00.456Z,63.60
2017-07-17T00:29:28.199Z,63.30
2017-07-17T00:31:55.880Z,63.60
2017-07-17T00:34:23.625Z,63.50
2017-07-17T00:36:51.389Z,63.40
2017-07-17T00:39:19.067Z,63.20
2017-07-17T00:41:46.918Z,64.10
2017-07-17T00:44:14.543Z,63.30
2017-07-17T00:46:42.344Z,63.20
2017-07-17T00:49:10.028Z,63.10
2017-07-17T00:51:37.772Z,63.10
2017-07-17T00:54:05.534Z,63.00
2017-07-17T00:56:33.198Z,62.90
2017-07-17T00:59:00.827Z,62.90
2017-07-17T01:01:28.551Z,62.90
2017-07-17T01:03:57.025Z,62.70
2017-07-17T01:06:24.767Z,62.70
2017-07-17T01:08:52.476Z,62.60
2017-07-17T01:11:21.042Z,62.70
2017-07-17T01:13:49.507Z,62.70
2017-07-17T01:16:17.171Z,62.70
2017-07-17T01:18:45.021Z,62.60
2017-07-17T01:21:12.781Z,62.50
2017-07-17T01:23:41.084Z,62.60
2017-07-17T01:26:08.833Z,62.60
2017-07-17T01:28:36.590Z,62.70
2017-07-17T01:31:04.355Z,62.70
2017-07-17T01:33:32.218Z,62.80
2017-07-17T01:35:59.984Z,62.70
2017-07-17T01:38:27.751Z,62.70
2017-07-17T01:40:55.617Z,62.60
2017-07-17T01:43:23.306Z,62.60
2017-07-17T01:45:51.142Z,62.50
2017-07-17T01:48:19.011Z,62.60
2017-07-17T01:50:46.773Z,62.50
2017-07-17T01:53:14.536Z,62.50
2017-07-17T01:55:42.409Z,62.40
2017-07-17T01:58:10.170Z,62.30
2017-07-17T02:00:37.856Z,62.20
2017-07-17T02:03:05.697Z,62.30
2017-07-17T02:05:33.459Z,62.10
2017-07-17T02:08:01.223Z,62.00
2017-07-17T02:10:29.091Z,62.20
2017-07-17T02:12:56.856Z,62.10
2017-07-17T02:15:24.618Z,61.90
2017-07-17T02:17:52.382Z,61.90
2017-07-17T02:20:20.069Z,62.00
2017-07-17T02:22:47.732Z,61.90
2017-07-17T02:25:15.573Z,61.70
2017-07-17T02:27:43.339Z,61.80
2017-07-17T02:30:10.995Z,61.80
2017-07-17T02:32:38.761Z,61.90
2017-07-17T02:35:06.526Z,62.00
2017-07-17T02:37:34.293Z,62.00
2017-07-17T02:40:02.160Z,62.00
2017-07-17T02:42:29.924Z,62.00
2017-07-17T02:44:57.687Z,62.00
2017-07-17T02:47:25.359Z,62.00
2017-07-17T02:49:53.034Z,61.90
2017-07-17T02:52:20.776Z,62.00
2017-07-17T02:54:48.555Z,62.10
2017-07-17T02:57:16.226Z,62.00
2017-07-17T02:59:43.967Z,62.10
2017-07-17T03:02:11.831Z,62.10
2017-07-17T03:04:39.596Z,62.10
2017-07-17T03:07:07.359Z,62.30
2017-07-17T03:09:35.038Z,62.20
2017-07-17T03:12:02.791Z,62.00
2017-07-17T03:14:30.550Z,62.00
2017-07-17T03:16:58.227Z,62.00
2017-07-17T03:19:25.896Z,62.20
2017-07-17T03:21:53.637Z,62.10
2017-07-17T03:24:21.432Z,62.30
2017-07-17T03:26:49.164Z,62.20
2017-07-17T03:29:16.858Z,62.30
2017-07-17T03:31:45.417Z,62.30
2017-07-17T03:34:13.067Z,62.30
2017-07-17T03:36:40.737Z,62.30
2017-07-17T03:39:08.601Z,62.20
2017-07-17T03:41:36.367Z,62.50
2017-07-17T03:44:04.052Z,62.40
2017-07-17T03:46:31.895Z,62.70
2017-07-17T03:48:59.660Z,62.80
2017-07-17T03:51:27.423Z,62.70
2017-07-17T03:53:55.315Z,62.70
2017-07-17T03:56:23.059Z,62.70
2017-07-17T03:58:50.691Z,62.70
2017-07-17T04:01:18.482Z,63.00
2017-07-17T04:03:46.143Z,62.90
2017-07-17T04:06:13.912Z,62.90
2017-07-17T04:08:41.773Z,63.00
2017-07-17T04:11:09.451Z,62.80
2017-07-17T04:13:37.199Z,63.00
2017-07-17T04:16:04.994Z,63.20
2017-07-17T04:18:32.753Z,63.20
2017-07-17T04:21:00.412Z,63.30
2017-07-17T04:23:28.192Z,63.40
2017-07-17T04:25:56.665Z,63.40
2017-07-17T04:28:24.399Z,63.40
2017-07-17T04:30:52.266Z,63.50
2017-07-17T04:33:20.037Z,63.60
2017-07-17T04:35:47.690Z,63.50
2017-07-17T04:38:15.456Z,63.70
2017-07-17T04:40:43.142Z,63.80
2017-07-17T04:43:10.882Z,63.80
2017-07-17T04:45:38.647Z,63.90
2017-07-17T04:48:06.414Z,63.90
2017-07-17T04:50:34.174Z,63.90
2017-07-17T04:53:01.938Z,64.30
2017-07-17T04:55:29.563Z,64.60
2017-07-17T04:57:57.195Z,64.80
2017-07-17T05:00:25.782Z,65.70
2017-07-17T05:02:54.327Z,64.60
2017-07-17T05:05:22.007Z,64.60
2017-07-17T05:07:49.858Z,64.60
2017-07-17T05:10:17.526Z,64.90
2017-07-17T05:12:45.281Z,64.80
2017-07-17T05:15:12.966Z,65.00
2017-07-17T05:17:40.709Z,64.90
2017-07-17T05:20:08.473Z,64.90
2017-07-17T05:22:36.339Z,65.10
2017-07-17T05:25:04.020Z,65.10
2017-07-17T05:27:31.684Z,65.00
2017-07-17T05:29:59.530Z,64.90
2017-07-17T05:32:27.293Z,64.80
2017-07-17T05:34:55.056Z,65.10
2017-07-17T05:37:22.722Z,65.20
2017-07-17T05:39:50.484Z,65.00
2017-07-17T05:42:18.248Z,65.10
2017-07-17T05:44:45.932Z,65.10
2017-07-17T05:47:13.587Z,65.20
2017-07-17T05:49:41.214Z,65.40
2017-07-17T05:52:08.923Z,65.40
2017-07-17T05:54:36.657Z,65.50
2017-07-17T05:57:04.360Z,65.50
2017-07-17T05:59:32.824Z,66.00
2017-07-17T06:02:00.478Z,65.90
2017-07-17T06:04:28.163Z,66.00
2017-07-17T06:06:56.712Z,66.30
2017-07-17T06:09:24.475Z,66.10
2017-07-17T06:11:52.237Z,66.00
2017-07-17T06:14:20.002Z,66.30
2017-07-17T06:16:47.652Z,66.40
2017-07-17T06:19:15.348Z,66.40
2017-07-17T06:21:43.191Z,66.60
2017-07-17T06:24:10.957Z,66.30
2017-07-17T06:26:38.654Z,66.50
2017-07-17T06:29:07.092Z,66.20
2017-07-17T06:31:34.785Z,66.20
2017-07-17T06:34:02.625Z,66.30
2017-07-17T06:36:30.392Z,66.40
2017-07-17T06:38:58.162Z,66.30
2017-07-17T06:41:25.919Z,66.20
2017-07-17T06:43:53.786Z,66.20
2017-07-17T06:46:21.551Z,66.80
2017-07-17T06:48:49.317Z,67.00
2017-07-17T06:51:17.079Z,66.40
2017-07-17T06:53:44.843Z,66.50
2017-07-17T06:56:12.608Z,66.40
2017-07-17T06:58:40.476Z,66.60
2017-07-17T07:01:08.165Z,66.40
2017-07-17T07:03:35.814Z,66.30
2017-07-17T07:06:03.580Z,65.80
2017-07-17T07:08:31.249Z,66.10
2017-07-17T07:10:59.095Z,66.10
2017-07-17T07:13:26.783Z,66.90
2017-07-17T07:15:54.437Z,68.20
2017-07-17T07:18:22.095Z,67.10
2017-07-17T07:20:49.944Z,66.00
2017-07-17T07:23:17.603Z,65.30
2017-07-17T07:25:45.289Z,64.90
2017-07-17T07:28:13.135Z,65.00
2017-07-17T07:30:40.897Z,64.80
2017-07-17T07:33:08.603Z,65.00
2017-07-17T07:35:37.144Z,65.00
2017-07-17T07:38:04.907Z,65.00
2017-07-17T07:40:32.680Z,65.10
2017-07-17T07:43:00.538Z,64.90
2017-07-17T07:45:28.303Z,64.80
2017-07-17T07:47:55.988Z,64.30
2017-07-17T07:50:23.833Z,64.10
2017-07-17T07:52:51.492Z,64.10
2017-07-17T07:55:19.262Z,63.80
2017-07-17T07:57:47.022Z,62.80
2017-07-17T08:00:14.787Z,63.40
2017-07-17T08:02:42.548Z,62.90
2017-07-17T08:05:10.311Z,62.60
2017-07-17T08:07:37.939Z,61.70
2017-07-17T08:10:05.660Z,62.00
2017-07-17T08:12:33.437Z,61.50
2017-07-17T08:15:01.983Z,60.80
2017-07-17T08:17:29.663Z,60.70
2017-07-17T08:19:57.332Z,60.90
2017-07-17T08:22:25.072Z,60.90
2017-07-17T08:24:52.835Z,61.10
2017-07-17T08:27:20.702Z,61.00
2017-07-17T08:29:48.380Z,60.60
2017-07-17T08:32:16.127Z,60.90
2017-07-17T08:34:43.891Z,61.10
2017-07-17T08:37:11.658Z,60.70
2017-07-17T08:39:39.421Z,61.30
2017-07-17T08:42:07.596Z,60.80
2017-07-17T08:44:35.369Z,59.30
2017-07-17T08:47:03.122Z,59.30
2017-07-17T08:49:30.886Z,59.00
2017-07-17T08:51:58.650Z,59.10
2017-07-17T08:54:26.417Z,59.30
2017-07-17T08:56:54.091Z,58.80
2017-07-17T08:59:22.046Z,58.90
2017-07-17T09:01:49.810Z,58.60
2017-07-17T09:04:17.685Z,58.70
2017-07-17T09:06:45.365Z,57.40
2017-07-17T09:09:13.306Z,57.40
2017-07-17T09:11:41.083Z,57.30
2017-07-17T09:14:08.844Z,57.50
2017-07-17T09:16:36.601Z,57.70
2017-07-17T09:19:04.282Z,57.50
2017-07-17T09:21:32.029Z,57.30
2017-07-17T09:24:01.979Z,56.90
2017-07-17T09:26:29.832Z,56.30
2017-07-17T09:28:57.571Z,56.00
2017-07-17T09:31:25.348Z,55.70
2017-07-17T09:33:53.119Z,55.50
2017-07-17T09:36:20.864Z,55.40
2017-07-17T09:38:48.549Z,55.30
2017-07-17T09:41:17.070Z,55.30
2017-07-17T09:43:44.703Z,54.30
2017-07-17T09:46:13.253Z,53.70
2017-07-17T09:48:41.121Z,54.10
2017-07-17T09:51:08.886Z,53.80
2017-07-17T09:53:36.650Z,53.40
2017-07-17T09:56:04.414Z,53.90
2017-07-17T09:58:32.097Z,54.10
2017-07-17T10:00:59.836Z,53.50
2017-07-17T10:03:27.601Z,51.50
2017-07-17T10:05:55.304Z,52.10
2017-07-17T10:08:23.848Z,53.20
2017-07-17T10:10:51.716Z,53.00
2017-07-17T10:13:19.478Z,52.90
2017-07-17T10:15:47.472Z,52.10
2017-07-17T10:18:15.314Z,52.80
2017-07-17T10:20:43.079Z,52.20
2017-07-17T10:23:10.706Z,52.30
2017-07-17T10:25:38.504Z,51.50
2017-07-17T10:28:06.183Z,51.70
2017-07-17T10:30:33.931Z,51.20
2017-07-17T10:33:01.795Z,51.40
2017-07-17T10:35:29.560Z,50.40
2017-07-17T10:37:57.324Z,49.80
2017-07-17T10:40:24.997Z,50.20
2017-07-17T10:42:52.682Z,49.90
2017-07-17T10:45:21.156Z,49.90
2017-07-17T10:47:48.998Z,50.20
2017-07-17T10:50:16.642Z,49.50
2017-07-17T10:52:44.323Z,49.30
2017-07-17T10:55:12.000Z,48.60
2017-07-17T10:57:39.664Z,49.10
2017-07-17T11:00:07.408Z,48.70
2017-07-17T11:02:35.275Z,49.60
2017-07-17T11:05:02.956Z,49.10
2017-07-17T11:07:30.702Z,50.20
2017-07-17T11:09:58.486Z,50.20
2017-07-17T11:12:26.154Z,50.50
2017-07-17T11:14:53.890Z,49.80
2017-07-17T11:17:21.757Z,49.40
2017-07-17T11:19:49.639Z,47.60
2017-07-17T11:22:17.454Z,48.20
2017-07-17T11:24:45.378Z,48.30
2017-07-17T11:27:13.246Z,49.10
2017-07-17T11:29:41.108Z,47.80
2017-07-17T11:32:09.082Z,48.10
2017-07-17T11:34:37.244Z,46.80
2017-07-17T11:37:04.894Z,46.60
2017-07-17T11:39:32.763Z,46.60
2017-07-17T11:42:00.523Z,47.50
2017-07-17T11:44:28.293Z,47.60
2017-07-17T11:57:08.512Z,45.80
2017-07-17T11:59:36.401Z,47.50
2017-07-17T12:02:04.862Z,47.10
2017-07-17T12:04:32.723Z,46.40
2017-07-17T12:07:00.352Z,46.40
2017-07-17T12:09:28.153Z,46.60
2017-07-17T12:11:55.818Z,47.60
2017-07-17T12:14:23.578Z,45.00
2017-07-17T12:16:51.343Z,45.40
2017-07-17T12:19:19.209Z,46.30
2017-07-17T12:21:46.869Z,45.20
2017-07-17T12:24:14.560Z,46.00
2017-07-17T12:26:43.031Z,46.30
2017-07-17T12:29:10.779Z,45.60
2017-07-17T12:31:38.465Z,45.50
2017-07-17T12:34:06.308Z,45.60
2017-07-17T12:36:34.071Z,45.80
2017-07-17T12:39:01.732Z,45.20
2017-07-17T12:41:29.599Z,45.60
2017-07-17T12:43:57.362Z,44.80
2017-07-17T12:46:25.127Z,44.40
2017-07-17T12:48:52.890Z,44.30
2017-07-17T12:51:20.654Z,44.20
2017-07-17T12:53:48.419Z,44.30
2017-07-17T12:56:16.102Z,45.00
2017-07-17T12:58:43.847Z,45.40
2017-07-17T13:01:11.479Z,45.10
2017-07-17T13:03:39.304Z,45.60
2017-07-17T13:06:07.776Z,45.00
2017-07-17T13:08:35.517Z,44.90
2017-07-17T13:11:03.279Z,45.10
2017-07-17T13:13:30.978Z,44.70
2017-07-17T13:15:59.527Z,45.10
2017-07-17T13:18:27.395Z,45.10
2017-07-17T13:20:55.157Z,45.90
2017-07-17T13:23:22.922Z,45.80
2017-07-17T13:25:50.687Z,45.00
2017-07-17T13:28:18.474Z,45.20
2017-07-17T13:30:46.217Z,44.80
2017-07-17T13:33:14.081Z,43.90
2017-07-17T13:35:41.848Z,44.20
2017-07-17T13:38:09.644Z,45.00
2017-07-17T13:40:38.194Z,45.90
2017-07-17T13:43:05.958Z,45.40
2017-07-17T13:45:33.722Z,45.70
2017-07-17T13:48:01.589Z,45.80
2017-07-17T13:50:29.502Z,45.60
2017-07-17T13:55:24.165Z,44.60
2017-07-17T13:57:51.929Z,43.90
2017-07-17T14:00:20.047Z,44.10
2017-07-17T14:02:47.867Z,42.70
2017-07-17T14:05:15.503Z,43.30
2017-07-17T14:07:43.298Z,42.70
2017-07-17T14:10:11.059Z,43.50
2017-07-17T14:12:38.823Z,42.80
2017-07-17T14:15:06.491Z,42.50
2017-07-17T14:17:34.247Z,42.70
2017-07-17T14:20:02.012Z,43.80
2017-07-17T14:22:29.880Z,43.70
2017-07-17T14:24:57.643Z,43.20
2017-07-17T14:27:25.407Z,43.50
2017-07-17T14:29:53.086Z,42.90
2017-07-17T14:32:20.715Z,44.50
2017-07-17T14:34:48.495Z,43.60
2017-07-17T14:37:16.259Z,42.60
2017-07-17T14:39:43.919Z,42.30
2017-07-17T14:42:11.600Z,42.00
2017-07-17T14:44:39.368Z,42.20
2017-07-17T14:47:07.027Z,42.90
2017-07-17T14:49:34.773Z,42.00
2017-07-17T14:52:02.645Z,42.80
2017-07-17T14:54:30.326Z,43.20
2017-07-17T14:56:58.068Z,43.60
2017-07-17T14:59:25.935Z,43.80
2017-07-17T15:01:53.696Z,43.40
2017-07-17T15:04:21.461Z,42.20
2017-07-17T15:06:49.326Z,42.60
2017-07-17T15:09:16.990Z,42.80
2017-07-17T15:11:44.756Z,41.80
2017-07-17T15:14:12.622Z,42.50
2017-07-17T15:16:40.382Z,42.80
2017-07-17T15:19:08.149Z,41.70
2017-07-17T15:21:36.037Z,40.80
2017-07-17T15:24:03.782Z,40.60
2017-07-17T15:26:31.420Z,41.30
2017-07-17T15:28:59.119Z,43.30
2017-07-17T15:31:26.794Z,42.40
2017-07-17T15:33:54.526Z,43.50
2017-07-17T15:36:22.294Z,43.90
2017-07-17T15:38:50.059Z,40.80
2017-07-17T15:41:17.824Z,40.90
2017-07-17T15:43:45.620Z,40.40
2017-07-17T15:46:14.170Z,40.30
2017-07-17T15:48:41.935Z,40.60
2017-07-17T15:51:09.603Z,42.10
2017-07-17T15:53:37.360Z,44.10
2017-07-17T15:56:05.124Z,42.70
2017-07-17T15:58:32.922Z,41.00
2017-07-17T16:01:01.397Z,42.20
2017-07-17T16:03:29.137Z,41.60
2017-07-17T16:05:57.002Z,41.00
2017-07-17T16:08:24.765Z,42.80
2017-07-17T16:10:52.528Z,41.80
2017-07-17T16:13:20.395Z,42.20
2017-07-17T16:15:48.163Z,41.80
2017-07-17T16:18:15.923Z,41.60
2017-07-17T16:20:43.787Z,43.20
2017-07-17T16:23:11.477Z,43.00
2017-07-17T16:25:39.137Z,44.40
2017-07-17T16:28:06.982Z,43.30
2017-07-17T16:30:34.745Z,42.80
2017-07-17T16:33:02.510Z,44.00
2017-07-17T16:35:30.291Z,42.50
2017-07-17T16:37:58.039Z,43.40
2017-07-17T16:40:25.802Z,41.90
2017-07-17T16:42:53.666Z,42.80
2017-07-17T16:45:21.431Z,43.10
2017-07-17T16:47:49.198Z,44.60
2017-07-17T16:50:16.960Z,45.10
2017-07-17T16:52:44.726Z,44.20
2017-07-17T16:55:12.490Z,44.30
2017-07-17T16:57:40.281Z,43.90
2017-07-17T17:00:08.016Z,43.50
2017-07-17T17:02:35.696Z,43.20
2017-07-17T17:05:03.469Z,43.90
2017-07-17T17:07:31.139Z,44.00
2017-07-17T17:09:59.588Z,44.30
2017-07-17T17:12:27.458Z,44.20
2017-07-17T17:14:55.136Z,43.20
2017-07-17T17:17:22.982Z,45.00
2017-07-17T17:19:50.758Z,45.10
2017-07-17T17:22:18.641Z,44.70
2017-07-17T17:24:46.333Z,44.40
2017-07-17T17:27:14.142Z,43.70
2017-07-17T17:29:41.914Z,44.10
2017-07-17T17:32:09.670Z,44.50
2017-07-17T17:34:37.433Z,44.50
2017-07-17T17:37:05.196Z,43.50
2017-07-17T17:39:32.963Z,44.80
2017-07-17T17:42:00.827Z,45.00
2017-07-17T17:44:28.594Z,44.80
2017-07-17T17:46:56.357Z,44.90
2017-07-17T17:49:24.057Z,44.90
2017-07-17T17:51:52.516Z,45.20
2017-07-17T17:54:20.369Z,45.20
2017-07-17T17:56:48.130Z,45.20
2017-07-17T17:59:15.792Z,45.30
2017-07-17T18:01:43.660Z,45.10
2017-07-17T18:04:11.425Z,45.40
2017-07-17T18:06:39.290Z,45.70
2017-07-17T18:09:07.052Z,46.40
2017-07-17T18:11:34.817Z,45.90
2017-07-17T18:14:02.687Z,46.00
2017-07-17T18:16:30.448Z,45.30
2017-07-17T18:18:58.318Z,45.80
2017-07-17T18:21:26.079Z,45.80
2017-07-17T18:23:53.845Z,45.90
2017-07-17T18:26:21.525Z,46.30
2017-07-17T18:28:49.271Z,46.10
2017-07-17T18:31:17.069Z,46.10
2017-07-17T18:33:45.471Z,46.60
2017-07-17T18:36:13.186Z,46.50
2017-07-17T18:38:40.939Z,46.40
2017-07-17T18:41:08.715Z,46.60
2017-07-17T18:43:36.467Z,46.60
2017-07-17T18:46:04.249Z,46.90
2017-07-17T18:48:32.816Z,47.10
2017-07-17T18:51:00.579Z,47.10
2017-07-17T18:53:28.344Z,46.90
2017-07-17T18:55:56.110Z,47.20
2017-07-17T18:58:23.794Z,47.20
2017-07-17T19:00:52.355Z,47.50
2017-07-17T19:03:20.120Z,47.40
2017-07-17T19:05:47.887Z,47.40
2017-07-17T19:08:15.573Z,47.50
2017-07-17T19:10:43.343Z,47.70
2017-07-17T19:13:11.895Z,48.40
2017-07-17T19:15:39.671Z,47.80
2017-07-17T19:18:07.527Z,48.10
2017-07-17T19:20:35.390Z,47.90
2017-07-17T19:23:03.158Z,48.00
2017-07-17T19:25:31.024Z,48.20
2017-07-17T19:27:58.718Z,48.30
2017-07-17T19:30:27.205Z,48.90
2017-07-17T19:32:55.748Z,48.70
2017-07-17T19:35:23.511Z,48.60
2017-07-17T19:37:51.382Z,48.90
2017-07-17T19:40:19.148Z,49.00
2017-07-17T19:42:46.910Z,49.20
2017-07-17T19:45:14.708Z,49.30
2017-07-17T19:47:43.258Z,49.50
2017-07-17T19:50:11.123Z,49.40
2017-07-17T19:52:38.888Z,49.60
2017-07-17T19:55:06.568Z,49.60
2017-07-17T19:57:34.331Z,49.70
2017-07-17T20:00:01.999Z,49.70
2017-07-17T20:02:29.757Z,49.70
2017-07-17T20:04:57.503Z,49.60
2017-07-17T20:07:25.267Z,49.80
2017-07-17T20:09:53.033Z,49.90
2017-07-17T20:12:20.712Z,49.90
2017-07-17T20:14:48.476Z,50.00
2017-07-17T20:17:16.223Z,50.10
2017-07-17T20:19:43.870Z,50.20
2017-07-17T20:22:11.591Z,50.20
2017-07-17T20:24:39.990Z,50.40
2017-07-17T20:27:07.791Z,50.40
2017-07-17T20:29:35.471Z,50.50
2017-07-17T20:32:03.237Z,50.50
2017-07-17T20:34:31.085Z,50.70
2017-07-17T20:36:58.719Z,50.80
2017-07-17T20:39:26.528Z,50.80
2017-07-17T20:41:54.273Z,51.00
2017-07-17T20:44:21.938Z,51.00
2017-07-17T20:46:49.802Z,51.10
2017-07-17T20:49:17.568Z,51.00
2017-07-17T20:51:45.371Z,51.30
2017-07-17T20:54:13.777Z,51.40
2017-07-17T20:56:41.472Z,51.40
2017-07-17T20:59:09.238Z,51.40
2017-07-17T21:01:37.008Z,51.60
2017-07-17T21:04:04.793Z,51.50
2017-07-17T21:06:32.530Z,51.70
2017-07-17T21:09:00.194Z,51.60
2017-07-17T21:11:28.062Z,51.60
2017-07-17T21:13:55.822Z,51.90
2017-07-17T21:16:23.692Z,52.00
2017-07-17T21:18:51.507Z,51.80
2017-07-17T21:21:19.958Z,52.00
2017-07-17T21:23:47.803Z,51.90
2017-07-17T21:26:15.466Z,51.90
2017-07-17T21:28:43.330Z,52.60
2017-07-17T21:31:10.959Z,52.00
2017-07-17T21:33:38.759Z,52.00
2017-07-17T21:36:06.627Z,52.00
2017-07-17T21:38:34.326Z,52.00
2017-07-17T21:41:02.870Z,52.30
2017-07-17T21:43:30.553Z,52.20
2017-07-17T21:45:58.217Z,52.20
2017-07-17T21:48:26.061Z,52.60
2017-07-17T21:50:53.823Z,52.60
2017-07-17T21:53:21.692Z,52.80
2017-07-17T21:55:49.377Z,52.90
2017-07-17T21:58:17.032Z,52.80
2017-07-17T22:00:44.795Z,53.00
2017-07-17T22:03:12.540Z,53.10
2017-07-17T22:05:40.411Z,53.00
2017-07-17T22:08:08.176Z,53.20
2017-07-17T22:10:35.939Z,53.20
2017-07-17T22:13:03.603Z,53.30
2017-07-17T22:15:31.232Z,53.30
2017-07-17T22:17:59.023Z,53.20
2017-07-17T22:20:26.793Z,53.30
2017-07-17T22:22:54.555Z,53.10
2017-07-17T22:25:22.316Z,53.00
2017-07-17T22:27:50.082Z,53.00
2017-07-17T22:30:17.756Z,53.00
2017-07-17T22:32:45.442Z,53.10
2017-07-17T22:35:13.990Z,53.10
2017-07-17T22:37:41.753Z,53.00
2017-07-17T22:40:09.518Z,53.10
2017-07-17T22:42:37.286Z,53.20
2017-07-17T22:45:05.046Z,53.30
2017-07-17T22:47:32.738Z,53.40
2017-07-17T22:50:00.577Z,53.20
2017-07-17T22:52:28.339Z,53.20
2017-07-17T22:54:56.021Z,53.30
2017-07-17T22:57:23.689Z,53.20
2017-07-17T22:59:51.319Z,53.20
2017-07-17T23:02:19.091Z,53.10
2017-07-17T23:04:46.749Z,53.10
2017-07-17T23:07:14.618Z,53.10
2017-07-17T23:09:42.381Z,53.10
2017-07-17T23:12:10.077Z,53.10
2017-07-17T23:14:38.626Z,53.20
2017-07-17T23:17:06.391Z,53.20
2017-07-17T23:19:34.154Z,53.20
2017-07-17T23:22:01.922Z,53.30
2017-07-17T23:24:29.560Z,53.40
2017-07-17T23:26:57.347Z,53.40
2017-07-17T23:29:24.979Z,53.30
2017-07-17T23:31:52.647Z,53.30
2017-07-17T23:34:20.434Z,53.40
2017-07-17T23:36:48.119Z,53.30
2017-07-17T23:39:15.859Z,53.40
2017-07-17T23:41:43.624Z,53.50
2017-07-17T23:44:11.391Z,53.60
2017-07-17T23:46:39.157Z,53.60
2017-07-17T23:49:06.791Z,53.70
2017-07-17T23:51:34.578Z,53.80
2017-07-17T23:54:02.354Z,53.60
2017-07-17T23:56:30.128Z,53.80
2017-07-17T23:58:57.873Z,53.60
